Riparius, New York
Current Conditions -  °F | °C
As of 12:53 PM on Thursday 23 Oct 2014 (Local Time) from KGFL Reporting Station
Moderate Rain Moderate Rain  
Wind Chill:   Ceiling: 1900
Heat Index:   Visibility: 5mi
Dew Point:   Wind: 17mph
Humidity: 89%   Direction: 360°N
Pressure: 29.84"   Gusts: NA
Location:  43.66°N, 73.9°W
Report Text: KGFL 231653Z AUTO 36015KT 5SM RA BR FEW011 BKN019 OVC027 08/06 A2984 RMK AO2 SLP108 P0019 T00780061
Loading
Personal Weather Stations






























Interactive Weather Map
Tropical Storm Tracking
New forecast layout! Learn more

10-Day Weather Forecast

Advertisements
Track Severe Weather on mobile